sim
Sign-in with your pilot id or email,
or register
Callsign
Passwort

Schedule Details

Flight Number: RYR8182 (1)
Departure: London Stansted Airport (EGSS) at 06:20
Arrival: Fuerteventura Airport (GCFV) at 10:30
Route: Ryanair Passenger Schedule. Enter filed route here before submitting Pirep.

Weather Information
Getting current METAR information for EGSS 160220Z AUTO 20006KT 8000 NCD 04/03 Q1022
Getting current METAR information for GCFV 160230Z AUTO 28005KT 9999 NCD 13/10 Q1018

Schedule Frequency

Route Map